sensor_id;sensor_type;location;lat;lon;timestamp;temperature;humidity
7240;DHT22;3661;53.288;10.458;2022-11-20T00:01:52;0.60;99.90
7240;DHT22;3661;53.288;10.458;2022-11-20T00:04:24;0.60;99.90
7240;DHT22;3661;53.288;10.458;2022-11-20T00:06:57;0.60;99.90
7240;DHT22;3661;53.288;10.458;2022-11-20T00:09:30;0.60;99.90
7240;DHT22;3661;53.288;10.458;2022-11-20T00:12:04;0.60;99.90
7240;DHT22;3661;53.288;10.458;2022-11-20T00:14:37;0.50;99.90
7240;DHT22;3661;53.288;10.458;2022-11-20T00:17:09;0.50;99.90
7240;DHT22;3661;53.288;10.458;2022-11-20T00:19:43;0.50;99.90
7240;DHT22;3661;53.288;10.458;2022-11-20T00:22:15;0.50;99.90
7240;DHT22;3661;53.288;10.458;2022-11-20T00:24:48;0.50;99.90
7240;DHT22;3661;53.288;10.458;2022-11-20T00:27:21;0.50;99.90
7240;DHT22;3661;53.288;10.458;2022-11-20T00:29:53;0.50;99.90
7240;DHT22;3661;53.288;10.458;2022-11-20T00:32:26;0.50;99.90
7240;DHT22;3661;53.288;10.458;2022-11-20T00:34:58;0.50;99.90
7240;DHT22;3661;53.288;10.458;2022-11-20T00:37:30;0.60;99.90
7240;DHT22;3661;53.288;10.458;2022-11-20T00:40:03;0.60;99.90
7240;DHT22;3661;53.288;10.458;2022-11-20T00:42:36;0.60;99.90
7240;DHT22;3661;53.288;10.458;2022-11-20T00:45:09;0.60;99.90
7240;DHT22;3661;53.288;10.458;2022-11-20T00:47:41;0.60;99.90
7240;DHT22;3661;53.288;10.458;2022-11-20T00:50:14;0.50;99.90
7240;DHT22;3661;53.288;10.458;2022-11-20T00:52:47;0.60;99.90
7240;DHT22;3661;53.288;10.458;2022-11-20T00:55:20;0.50;99.90
7240;DHT22;3661;53.288;10.458;2022-11-20T00:57:53;0.50;99.90
7240;DHT22;3661;53.288;10.458;2022-11-20T01:00:25;0.50;99.90
7240;DHT22;3661;53.288;10.458;2022-11-20T01:02:58;0.50;99.90
7240;DHT22;3661;53.288;10.458;2022-11-20T01:05:34;0.50;99.90
7240;DHT22;3661;53.288;10.458;2022-11-20T01:08:06;0.50;99.90
7240;DHT22;3661;53.288;10.458;2022-11-20T01:10:38;0.50;99.90
7240;DHT22;3661;53.288;10.458;2022-11-20T01:13:13;0.50;99.90
7240;DHT22;3661;53.288;10.458;2022-11-20T01:16:04;0.50;99.90
7240;DHT22;3661;53.288;10.458;2022-11-20T01:18:39;0.50;99.90
7240;DHT22;3661;53.288;10.458;2022-11-20T01:21:13;0.50;99.90
7240;DHT22;3661;53.288;10.458;2022-11-20T01:23:48;0.50;99.90
7240;DHT22;3661;53.288;10.458;2022-11-20T01:26:23;0.50;99.90
7240;DHT22;3661;53.288;10.458;2022-11-20T01:28:59;0.50;99.90
7240;DHT22;3661;53.288;10.458;2022-11-20T01:31:33;0.50;99.90
7240;DHT22;3661;53.288;10.458;2022-11-20T01:34:07;0.50;99.90
7240;DHT22;3661;53.288;10.458;2022-11-20T01:36:41;0.50;99.90
7240;DHT22;3661;53.288;10.458;2022-11-20T01:39:16;0.50;99.90
7240;DHT22;3661;53.288;10.458;2022-11-20T01:41:50;0.40;99.90
7240;DHT22;3661;53.288;10.458;2022-11-20T01:44:54;0.40;99.90
7240;DHT22;3661;53.288;10.458;2022-11-20T01:47:31;0.50;99.90
7240;DHT22;3661;53.288;10.458;2022-11-20T01:50:08;0.40;99.90
7240;DHT22;3661;53.288;10.458;2022-11-20T01:52:47;0.40;99.90
7240;DHT22;3661;53.288;10.458;2022-11-20T01:55:25;0.40;99.90
7240;DHT22;3661;53.288;10.458;2022-11-20T01:57:59;0.40;99.90
7240;DHT22;3661;53.288;10.458;2022-11-20T02:00:33;0.40;99.90
7240;DHT22;3661;53.288;10.458;2022-11-20T02:03:09;0.40;99.90
7240;DHT22;3661;53.288;10.458;2022-11-20T02:05:46;0.40;99.90
7240;DHT22;3661;53.288;10.458;2022-11-20T02:08:24;0.30;99.90
7240;DHT22;3661;53.288;10.458;2022-11-20T02:10:58;0.30;99.90
7240;DHT22;3661;53.288;10.458;2022-11-20T02:13:30;0.30;99.90
7240;DHT22;3661;53.288;10.458;2022-11-20T02:16:21;0.30;99.90
7240;DHT22;3661;53.288;10.458;2022-11-20T02:18:55;0.20;99.90
7240;DHT22;3661;53.288;10.458;2022-11-20T02:21:35;0.20;99.90
7240;DHT22;3661;53.288;10.458;2022-11-20T02:24:12;0.20;99.90
7240;DHT22;3661;53.288;10.458;2022-11-20T02:26:50;0.10;99.90
7240;DHT22;3661;53.288;10.458;2022-11-20T02:29:25;0.10;99.90
7240;DHT22;3661;53.288;10.458;2022-11-20T02:32:01;0.10;99.90
7240;DHT22;3661;53.288;10.458;2022-11-20T02:34:35;0.10;99.90
7240;DHT22;3661;53.288;10.458;2022-11-20T02:37:14;0.10;99.90
7240;DHT22;3661;53.288;10.458;2022-11-20T02:39:52;0.00;99.90
7240;DHT22;3661;53.288;10.458;2022-11-20T02:42:25;0.00;99.90
7240;DHT22;3661;53.288;10.458;2022-11-20T02:44:58;-0.10;99.90
7240;DHT22;3661;53.288;10.458;2022-11-20T02:47:32;-0.10;99.90
7240;DHT22;3661;53.288;10.458;2022-11-20T02:50:06;-0.10;99.90
7240;DHT22;3661;53.288;10.458;2022-11-20T02:52:41;-0.10;99.90
7240;DHT22;3661;53.288;10.458;2022-11-20T02:55:15;-0.20;99.90
7240;DHT22;3661;53.288;10.458;2022-11-20T02:57:47;-0.20;99.90
7240;DHT22;3661;53.288;10.458;2022-11-20T03:00:21;-0.20;99.90
7240;DHT22;3661;53.288;10.458;2022-11-20T03:02:53;-0.20;99.90
7240;DHT22;3661;53.288;10.458;2022-11-20T03:05:27;-0.20;99.90
7240;DHT22;3661;53.288;10.458;2022-11-20T03:08:01;-0.20;99.90
7240;DHT22;3661;53.288;10.458;2022-11-20T03:10:35;-0.30;99.90
7240;DHT22;3661;53.288;10.458;2022-11-20T03:13:07;-0.30;99.90
7240;DHT22;3661;53.288;10.458;2022-11-20T03:15:40;-0.30;99.90
7240;DHT22;3661;53.288;10.458;2022-11-20T03:18:13;-0.30;99.90
7240;DHT22;3661;53.288;10.458;2022-11-20T03:20:47;-0.30;99.90
7240;DHT22;3661;53.288;10.458;2022-11-20T03:23:20;-0.30;99.90
7240;DHT22;3661;53.288;10.458;2022-11-20T03:25:53;-0.40;99.90
7240;DHT22;3661;53.288;10.458;2022-11-20T03:28:26;-0.30;99.90
7240;DHT22;3661;53.288;10.458;2022-11-20T03:30:59;-0.40;99.90
7240;DHT22;3661;53.288;10.458;2022-11-20T03:33:36;-0.40;99.90
7240;DHT22;3661;53.288;10.458;2022-11-20T03:36:11;-0.40;99.90
7240;DHT22;3661;53.288;10.458;2022-11-20T03:38:43;-0.40;99.90
7240;DHT22;3661;53.288;10.458;2022-11-20T03:41:19;-0.40;99.90
7240;DHT22;3661;53.288;10.458;2022-11-20T03:43:52;-0.40;99.90
7240;DHT22;3661;53.288;10.458;2022-11-20T03:46:25;-0.30;99.90
7240;DHT22;3661;53.288;10.458;2022-11-20T03:48:58;-0.30;99.90
7240;DHT22;3661;53.288;10.458;2022-11-20T03:51:32;-0.30;99.90
7240;DHT22;3661;53.288;10.458;2022-11-20T03:54:08;-0.30;99.90
7240;DHT22;3661;53.288;10.458;2022-11-20T03:56:42;-0.30;99.90
7240;DHT22;3661;53.288;10.458;2022-11-20T03:59:14;-0.30;99.90
7240;DHT22;3661;53.288;10.458;2022-11-20T04:01:47;-0.30;99.90
7240;DHT22;3661;53.288;10.458;2022-11-20T04:04:19;-0.20;99.90
7240;DHT22;3661;53.288;10.458;2022-11-20T04:06:54;-0.20;99.90
7240;DHT22;3661;53.288;10.458;2022-11-20T04:09:27;-0.20;99.90
7240;DHT22;3661;53.288;10.458;2022-11-20T04:12:02;-0.20;99.90
7240;DHT22;3661;53.288;10.458;2022-11-20T04:14:35;-0.20;99.90
7240;DHT22;3661;53.288;10.458;2022-11-20T04:17:07;-0.20;99.90
7240;DHT22;3661;53.288;10.458;2022-11-20T04:19:39;-0.20;99.90
7240;DHT22;3661;53.288;10.458;2022-11-20T04:22:12;-0.20;99.90
7240;DHT22;3661;53.288;10.458;2022-11-20T04:24:44;-0.20;99.90
7240;DHT22;3661;53.288;10.458;2022-11-20T04:27:18;-0.20;99.90
7240;DHT22;3661;53.288;10.458;2022-11-20T04:29:50;-0.20;99.90
7240;DHT22;3661;53.288;10.458;2022-11-20T04:32:22;-0.20;99.90
7240;DHT22;3661;53.288;10.458;2022-11-20T04:34:55;-0.10;99.90
7240;DHT22;3661;53.288;10.458;2022-11-20T04:37:27;-0.10;99.90
7240;DHT22;3661;53.288;10.458;2022-11-20T04:39:59;-0.10;99.90
7240;DHT22;3661;53.288;10.458;2022-11-20T04:42:33;-0.10;99.90
7240;DHT22;3661;53.288;10.458;2022-11-20T04:45:06;-0.10;99.90
7240;DHT22;3661;53.288;10.458;2022-11-20T04:47:38;-0.10;99.90
7240;DHT22;3661;53.288;10.458;2022-11-20T04:50:12;-0.10;99.90
7240;DHT22;3661;53.288;10.458;2022-11-20T04:52:44;-0.10;99.90
7240;DHT22;3661;53.288;10.458;2022-11-20T04:55:16;-0.10;99.90
7240;DHT22;3661;53.288;10.458;2022-11-20T04:57:58;-0.10;99.90
7240;DHT22;3661;53.288;10.458;2022-11-20T05:00:32;-0.10;99.90
7240;DHT22;3661;53.288;10.458;2022-11-20T05:03:04;-0.10;99.90
7240;DHT22;3661;53.288;10.458;2022-11-20T05:05:36;-0.10;99.90
7240;DHT22;3661;53.288;10.458;2022-11-20T05:08:09;-0.10;99.90
7240;DHT22;3661;53.288;10.458;2022-11-20T05:10:43;-0.10;99.90
7240;DHT22;3661;53.288;10.458;2022-11-20T05:13:18;-0.10;99.90
7240;DHT22;3661;53.288;10.458;2022-11-20T05:15:51;-0.10;99.90
7240;DHT22;3661;53.288;10.458;2022-11-20T05:18:23;-0.10;99.90
7240;DHT22;3661;53.288;10.458;2022-11-20T05:20:56;-0.10;99.90
7240;DHT22;3661;53.288;10.458;2022-11-20T05:23:30;-0.10;99.90
7240;DHT22;3661;53.288;10.458;2022-11-20T05:26:04;-0.10;99.90
7240;DHT22;3661;53.288;10.458;2022-11-20T05:28:41;-0.10;99.90
7240;DHT22;3661;53.288;10.458;2022-11-20T05:31:17;-0.10;99.90
7240;DHT22;3661;53.288;10.458;2022-11-20T05:33:50;-0.10;99.90
7240;DHT22;3661;53.288;10.458;2022-11-20T05:36:23;-0.10;99.90
7240;DHT22;3661;53.288;10.458;2022-11-20T05:38:56;-0.10;99.90
7240;DHT22;3661;53.288;10.458;2022-11-20T05:41:29;-0.10;99.90
7240;DHT22;3661;53.288;10.458;2022-11-20T05:44:04;-0.10;99.90
7240;DHT22;3661;53.288;10.458;2022-11-20T05:46:38;-0.10;99.90
7240;DHT22;3661;53.288;10.458;2022-11-20T05:49:13;-0.10;99.90
7240;DHT22;3661;53.288;10.458;2022-11-20T05:51:46;-0.10;99.90
7240;DHT22;3661;53.288;10.458;2022-11-20T05:54:19;0.00;99.90
7240;DHT22;3661;53.288;10.458;2022-11-20T05:56:55;0.00;99.90
7240;DHT22;3661;53.288;10.458;2022-11-20T05:59:32;0.00;99.90
7240;DHT22;3661;53.288;10.458;2022-11-20T06:02:08;0.00;99.90
7240;DHT22;3661;53.288;10.458;2022-11-20T06:04:41;0.00;99.90
7240;DHT22;3661;53.288;10.458;2022-11-20T06:07:16;0.00;99.90
7240;DHT22;3661;53.288;10.458;2022-11-20T06:09:52;0.00;99.90
7240;DHT22;3661;53.288;10.458;2022-11-20T06:12:24;0.00;99.90
7240;DHT22;3661;53.288;10.458;2022-11-20T06:14:58;-0.10;99.90
7240;DHT22;3661;53.288;10.458;2022-11-20T06:17:31;0.00;99.90
7240;DHT22;3661;53.288;10.458;2022-11-20T06:20:04;0.00;99.90
7240;DHT22;3661;53.288;10.458;2022-11-20T06:22:37;-0.10;99.90
7240;DHT22;3661;53.288;10.458;2022-11-20T06:25:10;-0.10;99.90
7240;DHT22;3661;53.288;10.458;2022-11-20T06:27:42;-0.10;99.90
7240;DHT22;3661;53.288;10.458;2022-11-20T06:30:19;-0.10;99.90
7240;DHT22;3661;53.288;10.458;2022-11-20T06:32:55;-0.10;99.90
7240;DHT22;3661;53.288;10.458;2022-11-20T06:35:29;-0.10;99.90
7240;DHT22;3661;53.288;10.458;2022-11-20T06:38:01;-0.10;99.90
7240;DHT22;3661;53.288;10.458;2022-11-20T06:40:35;-0.10;99.90
7240;DHT22;3661;53.288;10.458;2022-11-20T06:43:08;-0.10;99.90
7240;DHT22;3661;53.288;10.458;2022-11-20T06:45:44;-0.10;99.90
7240;DHT22;3661;53.288;10.458;2022-11-20T06:48:29;-0.10;99.90
7240;DHT22;3661;53.288;10.458;2022-11-20T06:51:03;-0.10;99.90
7240;DHT22;3661;53.288;10.458;2022-11-20T06:53:37;-0.10;99.90
7240;DHT22;3661;53.288;10.458;2022-11-20T06:56:09;-0.10;99.90
7240;DHT22;3661;53.288;10.458;2022-11-20T06:58:45;-0.10;99.90
7240;DHT22;3661;53.288;10.458;2022-11-20T07:01:20;-0.10;99.90
7240;DHT22;3661;53.288;10.458;2022-11-20T07:03:57;-0.10;99.90
7240;DHT22;3661;53.288;10.458;2022-11-20T07:06:30;-0.10;99.90
7240;DHT22;3661;53.288;10.458;2022-11-20T07:09:05;-0.10;99.90
7240;DHT22;3661;53.288;10.458;2022-11-20T07:11:37;-0.10;99.90
7240;DHT22;3661;53.288;10.458;2022-11-20T07:14:10;-0.10;99.90
7240;DHT22;3661;53.288;10.458;2022-11-20T07:16:46;-0.10;99.90
7240;DHT22;3661;53.288;10.458;2022-11-20T07:19:19;-0.10;99.90
7240;DHT22;3661;53.288;10.458;2022-11-20T07:21:51;-0.10;99.90
7240;DHT22;3661;53.288;10.458;2022-11-20T07:24:24;-0.10;99.90
7240;DHT22;3661;53.288;10.458;2022-11-20T07:26:56;-0.10;99.90
7240;DHT22;3661;53.288;10.458;2022-11-20T07:29:28;-0.10;99.90
7240;DHT22;3661;53.288;10.458;2022-11-20T07:32:04;-0.10;99.90
7240;DHT22;3661;53.288;10.458;2022-11-20T07:34:36;-0.10;99.90
7240;DHT22;3661;53.288;10.458;2022-11-20T07:37:09;-0.10;99.90
7240;DHT22;3661;53.288;10.458;2022-11-20T07:39:42;-0.10;99.90
7240;DHT22;3661;53.288;10.458;2022-11-20T07:42:18;-0.10;99.90
7240;DHT22;3661;53.288;10.458;2022-11-20T07:44:51;-0.10;99.90
7240;DHT22;3661;53.288;10.458;2022-11-20T07:47:24;-0.10;99.90
7240;DHT22;3661;53.288;10.458;2022-11-20T07:49:57;-0.10;99.90
7240;DHT22;3661;53.288;10.458;2022-11-20T07:52:29;-0.10;99.90
7240;DHT22;3661;53.288;10.458;2022-11-20T07:55:02;-0.10;99.90
7240;DHT22;3661;53.288;10.458;2022-11-20T07:57:35;-0.10;99.90
7240;DHT22;3661;53.288;10.458;2022-11-20T08:00:12;0.00;99.90
7240;DHT22;3661;53.288;10.458;2022-11-20T08:02:46;0.00;99.90
7240;DHT22;3661;53.288;10.458;2022-11-20T08:05:18;0.00;99.90
7240;DHT22;3661;53.288;10.458;2022-11-20T08:08:02;0.00;99.90
7240;DHT22;3661;53.288;10.458;2022-11-20T08:10:36;0.00;99.90
7240;DHT22;3661;53.288;10.458;2022-11-20T08:13:09;0.10;99.90
7240;DHT22;3661;53.288;10.458;2022-11-20T08:15:58;0.10;99.90
7240;DHT22;3661;53.288;10.458;2022-11-20T08:18:32;0.10;99.90
7240;DHT22;3661;53.288;10.458;2022-11-20T08:21:05;0.10;99.90
7240;DHT22;3661;53.288;10.458;2022-11-20T08:23:42;0.20;99.90
7240;DHT22;3661;53.288;10.458;2022-11-20T08:26:15;0.20;99.90
7240;DHT22;3661;53.288;10.458;2022-11-20T08:28:47;0.20;99.90
7240;DHT22;3661;53.288;10.458;2022-11-20T08:31:20;0.20;99.90
7240;DHT22;3661;53.288;10.458;2022-11-20T08:33:56;0.20;99.90
7240;DHT22;3661;53.288;10.458;2022-11-20T08:36:28;0.30;99.90
7240;DHT22;3661;53.288;10.458;2022-11-20T08:39:01;0.30;99.90
7240;DHT22;3661;53.288;10.458;2022-11-20T08:41:38;0.30;99.90
7240;DHT22;3661;53.288;10.458;2022-11-20T08:44:10;0.30;99.90
7240;DHT22;3661;53.288;10.458;2022-11-20T08:46:42;0.40;99.90
7240;DHT22;3661;53.288;10.458;2022-11-20T08:49:18;0.40;99.90
7240;DHT22;3661;53.288;10.458;2022-11-20T08:51:53;0.40;99.90
7240;DHT22;3661;53.288;10.458;2022-11-20T08:54:26;0.40;99.90
7240;DHT22;3661;53.288;10.458;2022-11-20T08:56:59;0.50;99.90
7240;DHT22;3661;53.288;10.458;2022-11-20T08:59:31;0.50;99.90
7240;DHT22;3661;53.288;10.458;2022-11-20T09:02:03;0.60;99.90
7240;DHT22;3661;53.288;10.458;2022-11-20T09:04:37;0.60;99.90
7240;DHT22;3661;53.288;10.458;2022-11-20T09:07:11;0.70;99.90
7240;DHT22;3661;53.288;10.458;2022-11-20T09:09:46;0.70;99.90
7240;DHT22;3661;53.288;10.458;2022-11-20T09:12:19;0.80;99.90
7240;DHT22;3661;53.288;10.458;2022-11-20T09:14:51;0.90;99.90
7240;DHT22;3661;53.288;10.458;2022-11-20T09:17:23;1.00;99.90
7240;DHT22;3661;53.288;10.458;2022-11-20T09:19:57;1.10;99.90
7240;DHT22;3661;53.288;10.458;2022-11-20T09:22:29;1.20;99.90
7240;DHT22;3661;53.288;10.458;2022-11-20T09:25:01;1.20;99.90
7240;DHT22;3661;53.288;10.458;2022-11-20T09:27:33;1.30;99.90
7240;DHT22;3661;53.288;10.458;2022-11-20T09:30:07;1.30;99.90
7240;DHT22;3661;53.288;10.458;2022-11-20T09:32:39;1.40;99.90
7240;DHT22;3661;53.288;10.458;2022-11-20T09:35:13;1.50;99.90
7240;DHT22;3661;53.288;10.458;2022-11-20T09:37:45;1.50;99.90
7240;DHT22;3661;53.288;10.458;2022-11-20T09:40:20;1.60;99.90
7240;DHT22;3661;53.288;10.458;2022-11-20T09:42:56;1.60;99.90
7240;DHT22;3661;53.288;10.458;2022-11-20T09:45:37;1.60;99.90
7240;DHT22;3661;53.288;10.458;2022-11-20T09:48:20;1.70;99.90
7240;DHT22;3661;53.288;10.458;2022-11-20T09:51:05;1.70;99.90
7240;DHT22;3661;53.288;10.458;2022-11-20T09:53:50;1.70;99.90
7240;DHT22;3661;53.288;10.458;2022-11-20T09:56:28;1.70;99.90
7240;DHT22;3661;53.288;10.458;2022-11-20T09:59:04;1.70;99.90
7240;DHT22;3661;53.288;10.458;2022-11-20T10:01:38;1.80;99.90
7240;DHT22;3661;53.288;10.458;2022-11-20T10:04:16;1.80;99.90
7240;DHT22;3661;53.288;10.458;2022-11-20T10:06:59;1.90;99.90
7240;DHT22;3661;53.288;10.458;2022-11-20T10:09:35;1.90;99.90
7240;DHT22;3661;53.288;10.458;2022-11-20T10:12:14;2.00;99.90
7240;DHT22;3661;53.288;10.458;2022-11-20T10:15:03;2.10;99.90
7240;DHT22;3661;53.288;10.458;2022-11-20T10:18:04;2.10;99.90
7240;DHT22;3661;53.288;10.458;2022-11-20T10:20:46;2.30;99.90
7240;DHT22;3661;53.288;10.458;2022-11-20T10:23:47;2.40;99.90
7240;DHT22;3661;53.288;10.458;2022-11-20T10:26:31;2.50;99.90
7240;DHT22;3661;53.288;10.458;2022-11-20T10:29:11;2.50;99.90
7240;DHT22;3661;53.288;10.458;2022-11-20T10:31:47;2.60;99.90
7240;DHT22;3661;53.288;10.458;2022-11-20T10:34:26;2.70;99.90
7240;DHT22;3661;53.288;10.458;2022-11-20T10:37:02;2.70;99.90
7240;DHT22;3661;53.288;10.458;2022-11-20T10:39:42;2.80;99.90
7240;DHT22;3661;53.288;10.458;2022-11-20T10:42:23;2.80;99.90
7240;DHT22;3661;53.288;10.458;2022-11-20T10:45:09;2.80;99.90
7240;DHT22;3661;53.288;10.458;2022-11-20T10:47:45;2.90;99.90
7240;DHT22;3661;53.288;10.458;2022-11-20T10:50:20;2.90;99.90
7240;DHT22;3661;53.288;10.458;2022-11-20T10:52:59;3.00;99.90
7240;DHT22;3661;53.288;10.458;2022-11-20T10:55:42;3.00;99.90
7240;DHT22;3661;53.288;10.458;2022-11-20T10:58:21;3.00;99.90
7240;DHT22;3661;53.288;10.458;2022-11-20T11:01:03;3.10;99.90
7240;DHT22;3661;53.288;10.458;2022-11-20T11:03:36;3.20;99.90
7240;DHT22;3661;53.288;10.458;2022-11-20T11:06:14;3.30;99.90
7240;DHT22;3661;53.288;10.458;2022-11-20T11:08:53;3.30;99.90
7240;DHT22;3661;53.288;10.458;2022-11-20T11:11:29;3.40;99.90
7240;DHT22;3661;53.288;10.458;2022-11-20T11:14:06;3.50;99.90
7240;DHT22;3661;53.288;10.458;2022-11-20T11:16:49;3.50;99.90
7240;DHT22;3661;53.288;10.458;2022-11-20T11:19:22;3.60;99.90
7240;DHT22;3661;53.288;10.458;2022-11-20T11:21:55;3.70;99.90
7240;DHT22;3661;53.288;10.458;2022-11-20T11:24:29;3.80;99.90
7240;DHT22;3661;53.288;10.458;2022-11-20T11:27:11;3.90;99.90
7240;DHT22;3661;53.288;10.458;2022-11-20T11:29:43;4.00;99.90
7240;DHT22;3661;53.288;10.458;2022-11-20T11:32:18;4.00;99.90
7240;DHT22;3661;53.288;10.458;2022-11-20T11:38:04;4.00;99.90
7240;DHT22;3661;53.288;10.458;2022-11-20T11:40:39;4.10;99.90
7240;DHT22;3661;53.288;10.458;2022-11-20T11:43:21;4.10;99.90
7240;DHT22;3661;53.288;10.458;2022-11-20T11:46:27;4.10;99.90
7240;DHT22;3661;53.288;10.458;2022-11-20T11:49:11;4.00;99.90
7240;DHT22;3661;53.288;10.458;2022-11-20T11:51:58;4.00;99.90
7240;DHT22;3661;53.288;10.458;2022-11-20T11:54:35;4.00;99.90
7240;DHT22;3661;53.288;10.458;2022-11-20T11:57:14;3.90;99.90
7240;DHT22;3661;53.288;10.458;2022-11-20T11:59:57;3.90;99.90
7240;DHT22;3661;53.288;10.458;2022-11-20T12:02:36;3.80;99.90
7240;DHT22;3661;53.288;10.458;2022-11-20T12:05:17;3.80;99.90
7240;DHT22;3661;53.288;10.458;2022-11-20T12:07:54;3.70;99.90
7240;DHT22;3661;53.288;10.458;2022-11-20T12:10:39;3.70;99.90
7240;DHT22;3661;53.288;10.458;2022-11-20T12:13:20;3.60;99.90
7240;DHT22;3661;53.288;10.458;2022-11-20T12:15:56;3.60;99.90
7240;DHT22;3661;53.288;10.458;2022-11-20T12:18:29;3.60;99.90
7240;DHT22;3661;53.288;10.458;2022-11-20T12:21:18;3.50;99.90
7240;DHT22;3661;53.288;10.458;2022-11-20T12:26:56;3.40;99.90
7240;DHT22;3661;53.288;10.458;2022-11-20T12:29:39;3.30;99.90
7240;DHT22;3661;53.288;10.458;2022-11-20T12:32:36;3.20;99.90
7240;DHT22;3661;53.288;10.458;2022-11-20T12:35:29;3.20;99.90
7240;DHT22;3661;53.288;10.458;2022-11-20T12:38:21;3.20;99.90
7240;DHT22;3661;53.288;10.458;2022-11-20T12:41:05;3.10;99.90
7240;DHT22;3661;53.288;10.458;2022-11-20T12:43:47;3.10;99.90
7240;DHT22;3661;53.288;10.458;2022-11-20T12:46:45;3.10;99.90
7240;DHT22;3661;53.288;10.458;2022-11-20T12:49:28;3.00;99.90
7240;DHT22;3661;53.288;10.458;2022-11-20T12:52:20;3.00;99.90
7240;DHT22;3661;53.288;10.458;2022-11-20T12:55:13;3.10;99.90
7240;DHT22;3661;53.288;10.458;2022-11-20T12:57:52;3.10;99.90
7240;DHT22;3661;53.288;10.458;2022-11-20T13:00:26;3.10;99.90
7240;DHT22;3661;53.288;10.458;2022-11-20T13:03:24;3.20;99.90
7240;DHT22;3661;53.288;10.458;2022-11-20T13:06:05;3.40;99.90
7240;DHT22;3661;53.288;10.458;2022-11-20T13:08:42;3.50;99.90
7240;DHT22;3661;53.288;10.458;2022-11-20T13:11:21;3.70;99.90
7240;DHT22;3661;53.288;10.458;2022-11-20T13:14:07;3.80;99.90
7240;DHT22;3661;53.288;10.458;2022-11-20T13:16:48;4.00;99.90
7240;DHT22;3661;53.288;10.458;2022-11-20T13:19:23;4.20;99.90
7240;DHT22;3661;53.288;10.458;2022-11-20T13:21:57;4.30;99.90
7240;DHT22;3661;53.288;10.458;2022-11-20T13:24:31;4.40;99.90
7240;DHT22;3661;53.288;10.458;2022-11-20T13:27:16;4.40;99.90
7240;DHT22;3661;53.288;10.458;2022-11-20T13:30:01;4.50;99.90
7240;DHT22;3661;53.288;10.458;2022-11-20T13:32:33;4.50;99.90
7240;DHT22;3661;53.288;10.458;2022-11-20T13:35:08;4.50;99.90
7240;DHT22;3661;53.288;10.458;2022-11-20T13:37:42;4.40;99.90
7240;DHT22;3661;53.288;10.458;2022-11-20T13:40:22;4.40;99.90
7240;DHT22;3661;53.288;10.458;2022-11-20T13:43:00;4.40;99.90
7240;DHT22;3661;53.288;10.458;2022-11-20T13:45:33;4.40;99.90
7240;DHT22;3661;53.288;10.458;2022-11-20T13:48:19;4.30;99.90
7240;DHT22;3661;53.288;10.458;2022-11-20T13:51:05;4.30;99.90
7240;DHT22;3661;53.288;10.458;2022-11-20T13:56:59;4.20;99.90
7240;DHT22;3661;53.288;10.458;2022-11-20T13:59:44;4.10;99.90
7240;DHT22;3661;53.288;10.458;2022-11-20T14:02:21;4.10;99.90
7240;DHT22;3661;53.288;10.458;2022-11-20T14:04:56;4.00;99.90
7240;DHT22;3661;53.288;10.458;2022-11-20T14:07:35;4.00;99.90
7240;DHT22;3661;53.288;10.458;2022-11-20T14:10:20;3.90;99.90
7240;DHT22;3661;53.288;10.458;2022-11-20T14:12:53;3.80;99.90
7240;DHT22;3661;53.288;10.458;2022-11-20T14:15:28;3.70;99.90
7240;DHT22;3661;53.288;10.458;2022-11-20T14:18:12;3.60;99.90
7240;DHT22;3661;53.288;10.458;2022-11-20T14:20:45;3.50;99.90
7240;DHT22;3661;53.288;10.458;2022-11-20T14:23:24;3.50;99.90
7240;DHT22;3661;53.288;10.458;2022-11-20T14:25:58;3.40;99.90
7240;DHT22;3661;53.288;10.458;2022-11-20T14:28:33;3.40;99.90
7240;DHT22;3661;53.288;10.458;2022-11-20T14:31:18;3.30;99.90
7240;DHT22;3661;53.288;10.458;2022-11-20T14:33:54;3.20;99.90
7240;DHT22;3661;53.288;10.458;2022-11-20T14:36:27;3.20;99.90
7240;DHT22;3661;53.288;10.458;2022-11-20T14:38:59;3.20;99.90
7240;DHT22;3661;53.288;10.458;2022-11-20T14:41:37;3.10;99.90
7240;DHT22;3661;53.288;10.458;2022-11-20T14:44:09;3.00;99.90
7240;DHT22;3661;53.288;10.458;2022-11-20T14:46:42;3.00;99.90
7240;DHT22;3661;53.288;10.458;2022-11-20T14:49:14;2.90;99.90
7240;DHT22;3661;53.288;10.458;2022-11-20T14:51:47;2.80;99.90
7240;DHT22;3661;53.288;10.458;2022-11-20T14:54:29;2.80;99.90
7240;DHT22;3661;53.288;10.458;2022-11-20T14:57:05;2.60;99.90
7240;DHT22;3661;53.288;10.458;2022-11-20T14:59:37;2.60;99.90
7240;DHT22;3661;53.288;10.458;2022-11-20T15:02:11;2.50;99.90
7240;DHT22;3661;53.288;10.458;2022-11-20T15:04:50;2.40;99.90
7240;DHT22;3661;53.288;10.458;2022-11-20T15:07:31;2.30;99.90
7240;DHT22;3661;53.288;10.458;2022-11-20T15:10:06;2.30;99.90
7240;DHT22;3661;53.288;10.458;2022-11-20T15:12:46;2.10;99.90
7240;DHT22;3661;53.288;10.458;2022-11-20T15:15:28;2.10;99.90
7240;DHT22;3661;53.288;10.458;2022-11-20T15:18:03;2.00;99.90
7240;DHT22;3661;53.288;10.458;2022-11-20T15:20:36;2.00;99.90
7240;DHT22;3661;53.288;10.458;2022-11-20T15:23:11;1.90;99.90
7240;DHT22;3661;53.288;10.458;2022-11-20T15:25:43;1.90;99.90
7240;DHT22;3661;53.288;10.458;2022-11-20T15:28:19;1.80;99.90
7240;DHT22;3661;53.288;10.458;2022-11-20T15:30:52;1.80;99.90
7240;DHT22;3661;53.288;10.458;2022-11-20T15:33:26;1.70;99.90
7240;DHT22;3661;53.288;10.458;2022-11-20T15:35:59;1.70;99.90
7240;DHT22;3661;53.288;10.458;2022-11-20T15:38:33;1.70;99.90
7240;DHT22;3661;53.288;10.458;2022-11-20T15:41:10;1.60;99.90
7240;DHT22;3661;53.288;10.458;2022-11-20T15:43:43;1.60;99.90
7240;DHT22;3661;53.288;10.458;2022-11-20T15:46:25;1.60;99.90
7240;DHT22;3661;53.288;10.458;2022-11-20T15:49:00;1.60;99.90
7240;DHT22;3661;53.288;10.458;2022-11-20T15:51:34;1.60;99.90
7240;DHT22;3661;53.288;10.458;2022-11-20T15:54:11;1.50;99.90
7240;DHT22;3661;53.288;10.458;2022-11-20T15:56:43;1.50;99.90
7240;DHT22;3661;53.288;10.458;2022-11-20T15:59:17;1.50;99.90
7240;DHT22;3661;53.288;10.458;2022-11-20T16:01:50;1.50;99.90
7240;DHT22;3661;53.288;10.458;2022-11-20T16:04:22;1.50;99.90
7240;DHT22;3661;53.288;10.458;2022-11-20T16:06:54;1.50;99.90
7240;DHT22;3661;53.288;10.458;2022-11-20T16:09:27;1.40;99.90
7240;DHT22;3661;53.288;10.458;2022-11-20T16:11:59;1.40;99.90
7240;DHT22;3661;53.288;10.458;2022-11-20T16:14:33;1.50;99.90
7240;DHT22;3661;53.288;10.458;2022-11-20T16:17:22;1.40;99.90
7240;DHT22;3661;53.288;10.458;2022-11-20T16:20:13;1.40;99.90
7240;DHT22;3661;53.288;10.458;2022-11-20T16:22:45;1.40;99.90
7240;DHT22;3661;53.288;10.458;2022-11-20T16:25:17;1.40;99.90
7240;DHT22;3661;53.288;10.458;2022-11-20T16:27:49;1.40;99.90
7240;DHT22;3661;53.288;10.458;2022-11-20T16:30:23;1.40;99.90
7240;DHT22;3661;53.288;10.458;2022-11-20T16:32:55;1.30;99.90
7240;DHT22;3661;53.288;10.458;2022-11-20T16:35:28;1.30;99.90
7240;DHT22;3661;53.288;10.458;2022-11-20T16:38:00;1.30;99.90
7240;DHT22;3661;53.288;10.458;2022-11-20T16:40:32;1.30;99.90
7240;DHT22;3661;53.288;10.458;2022-11-20T16:43:08;1.30;99.90
7240;DHT22;3661;53.288;10.458;2022-11-20T16:45:43;1.30;99.90
7240;DHT22;3661;53.288;10.458;2022-11-20T16:48:16;1.30;99.90
7240;DHT22;3661;53.288;10.458;2022-11-20T16:50:50;1.30;99.90
7240;DHT22;3661;53.288;10.458;2022-11-20T16:53:22;1.30;99.90
7240;DHT22;3661;53.288;10.458;2022-11-20T16:55:54;1.30;99.90
7240;DHT22;3661;53.288;10.458;2022-11-20T16:58:26;1.20;99.90
7240;DHT22;3661;53.288;10.458;2022-11-20T17:01:06;1.20;99.90
7240;DHT22;3661;53.288;10.458;2022-11-20T17:03:41;1.20;99.90